createdAt,value
2022-10-19T00:01:25.401Z,5.28
2022-10-19T00:03:55.929Z,4.15
2022-10-19T00:06:27.863Z,5.65
2022-10-19T00:08:58.976Z,4.95
2022-10-19T00:11:29.838Z,6.30
2022-10-19T00:13:59.980Z,5.78
2022-10-19T00:16:30.840Z,5.20
2022-10-19T00:19:00.680Z,5.47
2022-10-19T00:21:29.597Z,5.40
2022-10-19T00:23:57.992Z,6.72
2022-10-19T00:26:28.167Z,4.53
2022-10-19T00:28:57.771Z,6.30
2022-10-19T00:31:27.083Z,6.65
2022-10-19T00:33:58.831Z,6.43
2022-10-19T00:36:29.376Z,6.47
2022-10-19T00:38:58.839Z,5.70
2022-10-19T00:41:31.501Z,7.47
2022-10-19T00:44:03.054Z,6.25
2022-10-19T00:46:33.839Z,5.90
2022-10-19T00:49:08.405Z,6.38
2022-10-19T00:51:43.153Z,6.80
2022-10-19T00:54:12.653Z,5.90
2022-10-19T00:56:44.721Z,5.90
2022-10-19T00:59:16.093Z,6.85
2022-10-19T01:01:46.021Z,6.50
2022-10-19T01:04:15.063Z,6.25
2022-10-19T01:06:44.059Z,5.65
2022-10-19T01:09:12.545Z,6.13
2022-10-19T01:11:53.819Z,5.45
2022-10-19T01:14:37.652Z,5.22
2022-10-19T01:17:17.852Z,5.60
2022-10-19T01:20:31.661Z,5.53
2022-10-19T01:23:31.814Z,5.05
2022-10-19T01:26:14.823Z,4.65
2022-10-19T01:29:03.925Z,5.55
2022-10-19T01:31:42.986Z,5.68
2022-10-19T01:34:19.001Z,5.40
2022-10-19T01:36:59.006Z,5.47
2022-10-19T01:39:39.761Z,5.65
2022-10-19T01:42:15.930Z,4.55
2022-10-19T01:44:51.705Z,5.18
2022-10-19T01:47:27.427Z,4.32
2022-10-19T01:50:03.317Z,3.83
2022-10-19T01:52:33.447Z,3.65
2022-10-19T01:55:04.541Z,3.83
2022-10-19T01:57:49.453Z,3.83
2022-10-19T02:00:18.719Z,2.90
2022-10-19T02:02:52.150Z,4.07
2022-10-19T02:05:32.328Z,4.63
2022-10-19T02:08:05.671Z,3.55
2022-10-19T02:10:38.706Z,4.70
2022-10-19T02:13:09.092Z,4.30
2022-10-19T02:15:42.057Z,3.55
2022-10-19T02:18:13.864Z,3.80
2022-10-19T02:20:42.298Z,3.85
2022-10-19T02:23:11.068Z,3.67
2022-10-19T02:25:39.507Z,4.32
2022-10-19T02:28:07.934Z,3.90
2022-10-19T02:30:36.398Z,4.35
2022-10-19T02:33:04.927Z,3.60
2022-10-19T02:35:34.954Z,3.60
2022-10-19T02:38:05.688Z,4.15
2022-10-19T02:40:40.889Z,3.00
2022-10-19T02:43:15.181Z,4.03
2022-10-19T02:45:51.199Z,3.97
2022-10-19T02:48:25.743Z,4.03
2022-10-19T02:50:55.467Z,3.78
2022-10-19T02:53:23.832Z,3.60
2022-10-19T02:55:53.487Z,3.35
2022-10-19T02:58:21.867Z,3.30
2022-10-19T03:00:50.323Z,3.42
2022-10-19T03:03:18.813Z,3.08
2022-10-19T03:05:47.167Z,3.20
2022-10-19T03:08:16.930Z,3.33
2022-10-19T03:10:45.251Z,2.70
2022-10-19T03:13:13.590Z,3.28
2022-10-19T03:15:41.981Z,3.55
2022-10-19T03:18:10.332Z,3.75
2022-10-19T03:20:38.654Z,3.08
2022-10-19T03:23:06.986Z,2.40
2022-10-19T03:25:36.729Z,2.75
2022-10-19T03:28:05.154Z,4.05
2022-10-19T03:30:33.571Z,3.28
2022-10-19T03:33:01.887Z,2.75
2022-10-19T03:35:30.345Z,3.17
2022-10-19T03:37:58.641Z,3.03
2022-10-19T03:40:27.064Z,3.50
2022-10-19T03:42:56.771Z,3.78
2022-10-19T03:45:25.297Z,3.83
2022-10-19T03:47:53.876Z,3.33
2022-10-19T03:50:22.272Z,3.75
2022-10-19T03:52:50.798Z,2.78
2022-10-19T03:55:19.563Z,3.08
2022-10-19T03:57:47.907Z,2.00
2022-10-19T04:00:18.063Z,3.20
2022-10-19T04:02:46.411Z,2.38
2022-10-19T04:05:15.010Z,2.75
2022-10-19T04:07:43.359Z,3.17
2022-10-19T04:10:11.740Z,2.55
2022-10-19T04:12:40.088Z,3.40
2022-10-19T04:15:10.406Z,3.15
2022-10-19T04:17:40.106Z,3.03
2022-10-19T04:20:10.172Z,2.88
2022-10-19T04:22:38.536Z,2.97
2022-10-19T04:25:11.282Z,1.90
2022-10-19T04:27:39.777Z,3.42
2022-10-19T04:30:09.644Z,3.38
2022-10-19T04:32:39.401Z,3.13
2022-10-19T04:35:09.209Z,3.08
2022-10-19T04:37:37.572Z,2.97
2022-10-19T04:40:11.531Z,3.15
2022-10-19T04:42:43.170Z,3.40
2022-10-19T04:45:12.552Z,2.92
2022-10-19T04:47:42.275Z,3.17
2022-10-19T04:50:11.344Z,2.42
2022-10-19T04:52:39.717Z,2.67
2022-10-19T04:55:09.193Z,3.17
2022-10-19T04:57:37.536Z,3.17
2022-10-19T05:00:07.821Z,2.38
2022-10-19T05:02:36.195Z,3.63
2022-10-19T05:05:07.306Z,3.38
2022-10-19T05:07:35.872Z,2.20
2022-10-19T05:10:04.954Z,2.45
2022-10-19T05:12:33.403Z,2.75
2022-10-19T05:15:01.748Z,2.80
2022-10-19T05:17:32.075Z,2.97
2022-10-19T05:20:00.703Z,3.40
2022-10-19T05:22:30.515Z,3.28
2022-10-19T05:24:58.874Z,3.28
2022-10-19T05:27:27.264Z,3.63
2022-10-19T05:29:55.628Z,2.70
2022-10-19T05:32:23.976Z,4.25
2022-10-19T05:34:52.309Z,3.45
2022-10-19T05:37:21.714Z,3.42
2022-10-19T05:39:51.494Z,3.78
2022-10-19T05:42:19.851Z,3.80
2022-10-19T05:44:48.238Z,2.70
2022-10-19T05:47:16.664Z,3.88
2022-10-19T05:49:45.029Z,3.33
2022-10-19T05:52:13.870Z,2.50
2022-10-19T05:54:42.247Z,3.30
2022-10-19T05:57:11.998Z,2.80
2022-10-19T05:59:40.422Z,4.57
2022-10-19T06:02:14.159Z,2.97
2022-10-19T06:04:42.647Z,4.43
2022-10-19T06:07:11.011Z,3.33
2022-10-19T06:09:39.407Z,2.80
2022-10-19T06:12:07.944Z,3.13
2022-10-19T06:14:37.781Z,3.53
2022-10-19T06:17:06.763Z,3.50
2022-10-19T06:19:35.145Z,2.78
2022-10-19T06:22:03.622Z,3.35
2022-10-19T06:24:32.292Z,3.13
2022-10-19T06:27:00.628Z,4.82
2022-10-19T06:29:29.089Z,4.15
2022-10-19T06:32:00.296Z,3.65
2022-10-19T06:34:28.690Z,2.80
2022-10-19T06:36:57.116Z,3.83
2022-10-19T06:39:25.511Z,2.72
2022-10-19T06:41:53.854Z,4.03
2022-10-19T06:44:22.636Z,4.03
2022-10-19T06:46:51.038Z,2.83
2022-10-19T06:49:20.970Z,3.67
2022-10-19T06:51:49.324Z,4.00
2022-10-19T06:54:17.694Z,3.20
2022-10-19T06:56:46.115Z,3.15
2022-10-19T06:59:14.987Z,3.33
2022-10-19T07:01:43.599Z,3.10
2022-10-19T07:04:12.086Z,2.97
2022-10-19T07:06:41.917Z,3.95
2022-10-19T07:09:10.379Z,3.80
2022-10-19T07:11:45.522Z,3.92
2022-10-19T07:14:14.444Z,3.60
2022-10-19T07:16:42.826Z,2.85
2022-10-19T07:19:11.746Z,2.95
2022-10-19T07:21:43.065Z,2.33
2022-10-19T07:24:11.531Z,2.08
2022-10-19T07:26:39.935Z,2.75
2022-10-19T07:29:08.460Z,2.50
2022-10-19T07:31:36.907Z,2.55
2022-10-19T07:34:07.047Z,2.38
2022-10-19T07:36:37.060Z,2.08
2022-10-19T07:39:08.764Z,2.05
2022-10-19T07:41:37.276Z,3.28
2022-10-19T07:44:06.597Z,1.55
2022-10-19T07:46:37.247Z,2.03
2022-10-19T07:49:09.817Z,2.03
2022-10-19T07:51:39.258Z,1.85
2022-10-19T07:54:09.179Z,1.95
2022-10-19T07:56:38.055Z,2.17
2022-10-19T07:59:06.539Z,2.60
2022-10-19T08:01:40.953Z,2.35
2022-10-19T08:06:58.073Z,2.45
2022-10-19T08:09:51.504Z,2.22
2022-10-19T08:12:16.609Z,1.13
2022-10-19T08:14:45.015Z,1.65
2022-10-19T08:17:17.472Z,3.00
2022-10-19T08:19:46.303Z,2.10
2022-10-19T08:22:14.879Z,1.55
2022-10-19T08:24:44.649Z,2.50
2022-10-19T08:27:14.873Z,1.85
2022-10-19T08:29:43.272Z,2.47
2022-10-19T08:32:11.692Z,1.73
2022-10-19T08:34:40.283Z,2.60
2022-10-19T08:37:19.832Z,1.77
2022-10-19T08:39:58.583Z,2.10
2022-10-19T08:42:35.315Z,2.10
2022-10-19T08:45:42.631Z,1.42
2022-10-19T08:48:28.604Z,1.92
2022-10-19T08:50:59.617Z,1.95
2022-10-19T08:53:38.774Z,1.98
2022-10-19T08:59:41.624Z,1.77
2022-10-19T09:02:19.854Z,2.17
2022-10-19T09:04:57.197Z,1.75
2022-10-19T09:07:29.243Z,1.63
2022-10-19T09:10:02.410Z,1.70
2022-10-19T09:12:43.518Z,2.03
2022-10-19T09:15:17.432Z,3.05
2022-10-19T09:17:45.941Z,1.75
2022-10-19T09:20:21.715Z,1.55
2022-10-19T09:22:58.669Z,1.67
2022-10-19T09:25:29.248Z,2.22
2022-10-19T09:28:17.673Z,2.13
2022-10-19T09:30:48.813Z,2.22
2022-10-19T09:33:25.819Z,2.20
2022-10-19T09:35:58.361Z,2.17
2022-10-19T09:38:29.766Z,1.90
2022-10-19T09:40:59.392Z,2.10
2022-10-19T09:43:30.439Z,1.63
2022-10-19T09:46:13.995Z,2.10
2022-10-19T09:48:51.563Z,1.83
2022-10-19T09:51:21.872Z,1.90
2022-10-19T09:53:54.931Z,1.83
2022-10-19T09:56:26.080Z,2.47
2022-10-19T09:58:58.802Z,1.67
2022-10-19T10:01:41.504Z,2.35
2022-10-19T10:04:17.219Z,1.95
2022-10-19T10:06:49.092Z,2.35
2022-10-19T10:09:19.899Z,1.80
2022-10-19T10:11:51.611Z,2.30
2022-10-19T10:14:28.647Z,2.50
2022-10-19T10:16:58.436Z,2.13
2022-10-19T10:19:31.419Z,2.53
2022-10-19T10:22:01.270Z,2.50
2022-10-19T10:24:31.958Z,2.05
2022-10-19T10:27:02.844Z,1.92
2022-10-19T10:29:34.935Z,2.40
2022-10-19T10:32:09.006Z,2.00
2022-10-19T10:34:58.523Z,2.25
2022-10-19T10:37:36.741Z,2.03
2022-10-19T10:40:08.967Z,2.90
2022-10-19T10:42:43.397Z,2.00
2022-10-19T10:45:21.692Z,2.63
2022-10-19T10:47:50.478Z,1.75
2022-10-19T10:50:23.931Z,2.15
2022-10-19T10:53:02.460Z,1.83
2022-10-19T10:55:32.641Z,2.85
2022-10-19T10:58:16.699Z,2.20
2022-10-19T11:00:48.794Z,2.15
2022-10-19T11:03:23.919Z,1.77
2022-10-19T11:05:58.108Z,2.05
2022-10-19T11:08:33.108Z,2.50
2022-10-19T11:11:14.064Z,1.80
2022-10-19T11:13:48.872Z,2.28
2022-10-19T11:16:20.902Z,1.90
2022-10-19T11:18:54.764Z,1.80
2022-10-19T11:21:32.221Z,1.65
2022-10-19T11:24:11.411Z,2.15
2022-10-19T11:27:03.032Z,1.90
2022-10-19T11:30:03.304Z,1.45
2022-10-19T11:32:51.100Z,2.03
2022-10-19T11:35:40.924Z,2.13
2022-10-19T11:38:49.589Z,1.77
2022-10-19T11:41:30.179Z,1.55
2022-10-19T11:44:13.763Z,1.70
2022-10-19T11:46:56.728Z,2.30
2022-10-19T11:49:44.103Z,1.65
2022-10-19T11:52:18.571Z,2.28
2022-10-19T11:55:04.144Z,1.23
2022-10-19T11:57:40.205Z,1.38
2022-10-19T12:00:15.128Z,1.52
2022-10-19T12:03:28.231Z,1.95
2022-10-19T12:06:11.022Z,1.60
2022-10-19T12:09:02.410Z,1.70
2022-10-19T12:11:54.461Z,1.63
2022-10-19T12:14:27.717Z,1.98
2022-10-19T12:17:01.217Z,1.73
2022-10-19T12:19:37.689Z,1.50
2022-10-19T12:22:13.961Z,1.60
2022-10-19T12:24:42.422Z,2.03
2022-10-19T12:27:14.987Z,2.47
2022-10-19T12:29:48.539Z,1.38
2022-10-19T12:32:20.991Z,1.48
2022-10-19T12:35:00.397Z,1.15
2022-10-19T12:37:37.298Z,1.40
2022-10-19T12:40:13.419Z,2.38
2022-10-19T12:42:51.936Z,1.92
2022-10-19T12:45:32.381Z,2.35
2022-10-19T12:48:24.699Z,2.47
2022-10-19T12:51:20.149Z,2.50
2022-10-19T12:53:50.899Z,2.97
2022-10-19T12:56:25.241Z,3.08
2022-10-19T12:58:59.827Z,2.53
2022-10-19T13:01:43.948Z,3.10
2022-10-19T13:04:14.989Z,3.50
2022-10-19T13:06:46.243Z,3.38
2022-10-19T13:09:28.177Z,3.60
2022-10-19T13:12:30.431Z,2.60
2022-10-19T13:15:00.196Z,2.72
2022-10-19T13:17:46.293Z,2.65
2022-10-19T13:20:52.983Z,2.40
2022-10-19T13:23:42.193Z,3.42
2022-10-19T13:26:35.573Z,2.88
2022-10-19T13:29:04.027Z,2.33
2022-10-19T13:31:34.134Z,2.88
2022-10-19T13:34:10.764Z,2.60
2022-10-19T13:36:40.358Z,2.83
2022-10-19T13:39:18.572Z,2.80
2022-10-19T13:41:54.581Z,2.17
2022-10-19T13:44:28.305Z,2.03
2022-10-19T13:50:39.520Z,2.67
2022-10-19T13:53:39.915Z,4.03
2022-10-19T13:56:43.598Z,3.05
2022-10-19T14:00:00.309Z,4.55
2022-10-19T14:03:20.691Z,3.20
2022-10-19T14:06:28.494Z,2.55
2022-10-19T14:09:42.830Z,3.22
2022-10-19T14:12:22.416Z,3.85
2022-10-19T14:14:53.752Z,3.00
2022-10-19T14:17:25.656Z,3.20
2022-10-19T14:19:57.191Z,3.67
2022-10-19T14:22:31.019Z,2.55
2022-10-19T14:25:06.527Z,2.58
2022-10-19T14:27:36.041Z,3.58
2022-10-19T14:30:08.080Z,3.30
2022-10-19T14:32:36.839Z,3.15
2022-10-19T14:35:19.075Z,3.17
2022-10-19T14:37:47.533Z,3.60
2022-10-19T14:40:35.138Z,2.88
2022-10-19T14:43:03.564Z,2.80
2022-10-19T14:45:34.271Z,2.95
2022-10-19T14:48:04.993Z,3.03
2022-10-19T14:50:43.960Z,2.08
2022-10-19T14:53:34.567Z,3.60
2022-10-19T14:56:09.164Z,3.20
2022-10-19T14:58:45.402Z,3.05
2022-10-19T15:01:17.481Z,2.63
2022-10-19T15:03:47.381Z,3.20
2022-10-19T15:06:22.823Z,3.42
2022-10-19T15:08:55.140Z,3.47
2022-10-19T15:11:29.738Z,2.53
2022-10-19T15:14:07.270Z,2.50
2022-10-19T15:16:53.380Z,3.47
2022-10-19T15:19:28.881Z,2.38
2022-10-19T15:22:21.801Z,2.83
2022-10-19T15:25:02.959Z,3.47
2022-10-19T15:27:34.616Z,2.85
2022-10-19T15:30:07.736Z,2.33
2022-10-19T15:32:39.397Z,3.60
2022-10-19T15:35:13.912Z,2.80
2022-10-19T15:37:45.731Z,2.70
2022-10-19T15:40:21.265Z,2.40
2022-10-19T15:42:49.901Z,2.42
2022-10-19T15:45:36.664Z,2.50
2022-10-19T15:48:29.837Z,2.03
2022-10-19T15:50:59.218Z,3.03
2022-10-19T15:53:28.005Z,2.72
2022-10-19T15:55:56.714Z,2.80
2022-10-19T15:58:25.325Z,2.42
2022-10-19T16:00:53.882Z,2.20
2022-10-19T16:03:24.213Z,3.42
2022-10-19T16:05:53.029Z,2.42
2022-10-19T16:08:21.527Z,3.00
2022-10-19T16:10:50.383Z,2.10
2022-10-19T16:13:19.090Z,2.75
2022-10-19T16:15:53.349Z,2.75
2022-10-19T16:18:31.928Z,2.53
2022-10-19T16:21:00.816Z,2.10
2022-10-19T16:23:31.176Z,2.05
2022-10-19T16:25:59.723Z,2.67
2022-10-19T16:28:29.602Z,2.15
2022-10-19T16:30:58.465Z,3.30
2022-10-19T16:33:27.131Z,1.92
2022-10-19T16:35:56.882Z,2.70
2022-10-19T16:38:25.659Z,2.60
2022-10-19T16:40:54.506Z,2.45
2022-10-19T16:43:23.825Z,2.30
2022-10-19T16:45:52.889Z,2.72
2022-10-19T16:48:24.055Z,1.50
2022-10-19T16:51:38.281Z,1.85
2022-10-19T16:54:09.717Z,2.22
2022-10-19T16:56:43.408Z,2.17
2022-10-19T16:59:15.305Z,1.95
2022-10-19T17:01:46.674Z,2.72
2022-10-19T17:04:18.467Z,1.90
2022-10-19T17:06:49.153Z,2.25
2022-10-19T17:12:08.735Z,3.13
2022-10-19T17:14:38.900Z,2.60
2022-10-19T17:17:08.399Z,2.20
2022-10-19T17:19:38.286Z,1.35
2022-10-19T17:22:09.533Z,1.98
2022-10-19T17:24:39.585Z,1.65
2022-10-19T17:27:10.851Z,2.05
2022-10-19T17:29:42.023Z,2.83
2022-10-19T17:32:12.959Z,2.08
2022-10-19T17:34:43.020Z,1.48
2022-10-19T17:37:16.507Z,1.63
2022-10-19T17:39:47.069Z,1.67
2022-10-19T17:42:18.132Z,1.40
2022-10-19T17:44:50.719Z,2.60
2022-10-19T17:47:21.078Z,5.38
2022-10-19T17:49:51.351Z,3.20
2022-10-19T17:52:25.580Z,2.47
2022-10-19T17:57:45.421Z,2.08
2022-10-19T18:00:17.221Z,1.63
2022-10-19T18:02:48.081Z,2.55
2022-10-19T18:05:23.292Z,1.63
2022-10-19T18:07:55.220Z,3.17
2022-10-19T18:10:24.902Z,2.90
2022-10-19T18:12:55.715Z,3.65
2022-10-19T18:15:25.469Z,2.15
2022-10-19T18:17:56.024Z,3.92
2022-10-19T18:20:27.398Z,3.90
2022-10-19T18:23:01.284Z,2.92
2022-10-19T18:25:49.742Z,2.72
2022-10-19T18:28:23.214Z,2.40
2022-10-19T18:30:53.399Z,2.22
2022-10-19T18:33:24.000Z,2.83
2022-10-19T18:35:54.542Z,3.50
2022-10-19T18:38:26.393Z,3.97
2022-10-19T18:40:57.220Z,3.72
2022-10-19T18:43:30.567Z,3.05
2022-10-19T18:46:04.737Z,2.38
2022-10-19T18:48:36.901Z,2.22
2022-10-19T18:51:10.060Z,2.30
2022-10-19T18:53:41.896Z,2.95
2022-10-19T18:56:14.707Z,3.53
2022-10-19T18:58:46.945Z,3.97
2022-10-19T19:01:19.811Z,2.17
2022-10-19T19:03:52.795Z,2.95
2022-10-19T19:06:25.946Z,2.08
2022-10-19T19:09:00.114Z,2.42
2022-10-19T19:11:35.944Z,2.80
2022-10-19T19:14:09.560Z,2.00
2022-10-19T19:16:41.618Z,3.03
2022-10-19T19:19:13.000Z,2.15
2022-10-19T19:21:45.684Z,1.90
2022-10-19T19:24:20.549Z,1.85
2022-10-19T19:26:57.217Z,1.67
2022-10-19T19:29:31.018Z,1.75
2022-10-19T19:32:01.982Z,1.90
2022-10-19T19:34:33.444Z,1.42
2022-10-19T19:37:07.400Z,2.17
2022-10-19T19:39:42.922Z,2.42
2022-10-19T19:42:13.160Z,2.50
2022-10-19T19:44:42.809Z,2.30
2022-10-19T19:47:14.933Z,2.10
2022-10-19T19:49:46.957Z,3.08
2022-10-19T19:52:17.379Z,3.08
2022-10-19T19:54:51.792Z,2.50
2022-10-19T19:57:23.061Z,1.42
2022-10-19T19:59:53.318Z,1.27
2022-10-19T20:02:23.386Z,2.10
2022-10-19T20:04:55.216Z,2.08
2022-10-19T20:07:27.393Z,1.52
2022-10-19T20:10:00.257Z,1.63
2022-10-19T20:12:30.105Z,1.90
2022-10-19T20:14:59.792Z,2.95
2022-10-19T20:17:29.470Z,2.63
2022-10-19T20:20:00.407Z,1.85
2022-10-19T20:22:30.689Z,2.45
2022-10-19T20:25:01.315Z,3.25
2022-10-19T20:27:31.376Z,2.40
2022-10-19T20:30:00.960Z,2.38
2022-10-19T20:32:30.667Z,1.60
2022-10-19T20:35:00.180Z,2.92
2022-10-19T20:37:31.692Z,2.05
2022-10-19T20:40:07.465Z,2.22
2022-10-19T20:42:38.150Z,1.63
2022-10-19T20:45:09.413Z,3.10
2022-10-19T20:47:39.059Z,1.50
2022-10-19T20:50:09.584Z,2.53
2022-10-19T20:52:38.585Z,2.55
2022-10-19T20:55:09.880Z,2.10
2022-10-19T20:57:38.843Z,2.10
2022-10-19T21:00:09.330Z,1.80
2022-10-19T21:02:38.124Z,1.60
2022-10-19T21:05:09.190Z,1.60
2022-10-19T21:07:37.709Z,3.08
2022-10-19T21:10:08.996Z,3.67
2022-10-19T21:12:37.856Z,2.70
2022-10-19T21:15:07.702Z,1.80
2022-10-19T21:17:36.055Z,1.58
2022-10-19T21:20:04.658Z,2.97
2022-10-19T21:22:39.145Z,2.20
2022-10-19T21:25:11.591Z,2.03
2022-10-19T21:27:39.989Z,1.77
2022-10-19T21:30:10.128Z,1.73
2022-10-19T21:32:38.519Z,1.67
2022-10-19T21:35:07.767Z,2.22
2022-10-19T21:37:36.361Z,1.52
2022-10-19T21:40:05.325Z,2.35
2022-10-19T21:42:35.108Z,2.10
2022-10-19T21:45:25.298Z,1.90
2022-10-19T21:47:51.888Z,2.85
2022-10-19T21:50:20.267Z,2.00
2022-10-19T21:52:48.619Z,1.75
2022-10-19T21:55:17.277Z,1.73
2022-10-19T21:57:47.675Z,1.77
2022-10-19T22:00:16.141Z,1.60
2022-10-19T22:02:44.489Z,1.45
2022-10-19T22:05:13.051Z,2.25
2022-10-19T22:07:41.430Z,2.70
2022-10-19T22:10:10.812Z,1.90
2022-10-19T22:12:39.252Z,2.63
2022-10-19T22:15:11.012Z,1.73
2022-10-19T22:17:39.385Z,2.22
2022-10-19T22:20:09.551Z,1.88
2022-10-19T22:22:38.203Z,1.98
2022-10-19T22:25:07.724Z,2.55
2022-10-19T22:27:36.098Z,1.95
2022-10-19T22:30:04.729Z,3.22
2022-10-19T22:32:34.910Z,2.67
2022-10-19T22:35:03.536Z,1.42
2022-10-19T22:37:31.946Z,2.78
2022-10-19T22:40:00.334Z,1.50
2022-10-19T22:42:28.745Z,1.75
2022-10-19T22:44:57.135Z,2.47
2022-10-19T22:47:25.623Z,2.05
2022-10-19T22:49:55.487Z,2.22
2022-10-19T22:52:23.915Z,2.22
2022-10-19T22:54:52.338Z,2.47
2022-10-19T22:57:20.753Z,2.15
2022-10-19T22:59:49.166Z,2.08
2022-10-19T23:02:17.596Z,2.35
2022-10-19T23:04:46.019Z,2.65
2022-10-19T23:07:15.799Z,2.05
2022-10-19T23:09:44.252Z,2.10
2022-10-19T23:12:12.668Z,1.85
2022-10-19T23:14:41.096Z,1.60
2022-10-19T23:17:09.497Z,2.15
2022-10-19T23:19:37.905Z,1.10
2022-10-19T23:22:06.232Z,1.88
2022-10-19T23:24:36.056Z,1.55
2022-10-19T23:27:04.743Z,1.92
2022-10-19T23:29:33.188Z,1.50
2022-10-19T23:32:01.704Z,2.10
2022-10-19T23:34:30.180Z,2.50
2022-10-19T23:36:58.568Z,2.28
2022-10-19T23:39:27.048Z,1.60
2022-10-19T23:41:56.793Z,1.33
2022-10-19T23:44:25.145Z,1.58
2022-10-19T23:46:53.495Z,2.00
2022-10-19T23:49:21.876Z,1.90
2022-10-19T23:51:50.233Z,1.85
2022-10-19T23:54:18.588Z,1.80
2022-10-19T23:56:47.001Z,1.60
2022-10-19T23:59:16.755Z,2.13
